Time;durP1;ratioP1;P1;durP2;ratioP2;P2;SDS_P1;SDS_P2;PMS_P1;PMS_P2;Temp;Humidity;BMP_temperature;BMP_pressure;BME280_temperature;BME280_humidity;BME280_pressure;Samples;Min_cycle;Max_cycle;Signal;HPM_P1;HPM_P2
2022/06/07 00:02:09;;;;;;;;;1.00;1.00;;;;;20.03;51.85;101137.19;5098754;27;45321;-77
2022/06/07 00:04:36;;;;;;;;;1.00;1.00;;;;;19.86;51.43;101121.78;5098791;27;45427;-75
2022/06/07 00:07:02;;;;;;;;;1.33;1.00;;;;;19.90;51.57;101115.41;5099191;27;45353;-74
2022/06/07 00:09:29;;;;;;;;;2.00;2.00;;;;;20.01;52.18;101133.72;5099045;27;45615;-72
2022/06/07 00:11:55;;;;;;;;;3.00;2.00;;;;;20.03;51.95;101131.03;5098735;27;46577;-74
2022/06/07 00:14:20;;;;;;;;;1.00;1.00;;;;;20.04;52.11;101130.09;5090637;27;45412;-73
2022/06/07 00:16:46;;;;;;;;;2.00;2.00;;;;;19.86;52.44;101100.50;5092050;27;45381;-72
2022/06/07 00:19:12;;;;;;;;;1.00;1.00;;;;;20.04;52.19;101122.09;5097529;27;45440;-74
2022/06/07 00:21:41;;;;;;;;;2.67;2.00;;;;;19.97;52.36;101116.09;5098191;27;46071;-74
2022/06/07 00:24:07;;;;;;;;;1.67;1.00;;;;;20.06;52.82;101122.94;5098453;27;45388;-74
2022/06/07 00:26:37;;;;;;;;;2.00;2.00;;;;;20.03;52.71;101112.41;5098810;27;45457;-73
2022/06/07 00:29:04;;;;;;;;;2.00;2.00;;;;;20.08;52.64;101118.44;5099074;27;45308;-72
2022/06/07 00:31:29;;;;;;;;;1.00;1.00;;;;;19.90;52.56;101088.84;5098430;27;46495;-73
2022/06/07 00:33:55;;;;;;;;;1.00;1.00;;;;;20.00;52.79;101099.19;5098410;27;45435;-72
2022/06/07 00:36:22;;;;;;;;;1.67;1.00;;;;;19.99;53.09;101094.81;5099254;27;45504;-73
2022/06/07 00:38:47;;;;;;;;;1.00;1.00;;;;;19.96;52.93;101098.44;5099525;27;45469;-70
2022/06/07 00:41:13;;;;;;;;;1.00;1.00;;;;;20.07;52.87;101106.94;5098581;27;46127;-72
2022/06/07 00:43:41;;;;;;;;;1.00;1.00;;;;;20.06;53.08;101105.19;5098353;27;45391;-74
2022/06/07 00:46:11;;;;;;;;;1.00;1.00;;;;;19.89;53.19;101070.28;5114343;27;45464;-74
2022/06/07 00:48:38;;;;;;;;;1.00;1.00;;;;;20.06;53.21;101099.00;5089112;27;45397;-72
2022/06/07 00:51:11;;;;;;;;;1.00;1.00;;;;;20.06;53.68;101101.66;5077368;27;45401;-73
2022/06/07 00:53:37;;;;;;;;;1.00;0.67;;;;;20.00;53.25;101086.75;5081559;27;45311;-72
2022/06/07 00:56:05;;;;;;;;;2.00;2.00;;;;;20.03;53.63;101097.31;5078102;27;45495;-73
2022/06/07 00:58:32;;;;;;;;;8.00;7.00;;;;;20.01;53.33;101098.28;5084126;27;45391;-74
2022/06/07 01:00:59;;;;;;;;;3.00;3.00;;;;;19.96;53.80;101089.59;5083536;27;45464;-74
2022/06/07 01:03:25;;;;;;;;;1.33;1.33;;;;;19.87;53.95;101075.66;5097798;27;45336;-73
2022/06/07 01:05:52;;;;;;;;;1.00;1.00;;;;;19.80;54.07;101070.59;5093824;27;45438;-73
2022/06/07 01:11:04;;;;;;;;;0.33;0.33;;;;;19.80;54.36;101079.41;5088192;27;45353;-75
2022/06/07 01:13:34;;;;;;;;;2.33;1.00;;;;;19.76;54.30;101079.56;5098123;27;45534;-75
2022/06/07 01:16:05;;;;;;;;;2.00;2.00;;;;;19.74;54.72;101079.59;5098280;27;45451;-77
2022/06/07 01:18:31;;;;;;;;;1.00;1.00;;;;;19.24;54.49;100992.53;5098677;27;45491;-77
2022/06/07 01:21:15;;;;;;;;;1.00;1.00;;;;;19.73;54.90;101074.34;5098307;27;45379;-76
2022/06/07 01:23:42;;;;;;;;;1.00;1.00;;;;;19.18;54.65;100992.72;5088334;27;45413;-77
2022/06/07 01:26:09;;;;;;;;;1.00;0.67;;;;;19.75;54.68;101069.84;5095731;27;45520;-76
2022/06/07 01:28:36;;;;;;;;;1.00;1.00;;;;;19.74;55.12;101068.97;5098486;27;45236;-77
2022/06/07 01:31:02;;;;;;;;;3.00;1.33;;;;;19.65;55.28;101072.75;5098159;27;45433;-77
2022/06/07 01:33:27;;;;;;;;;1.00;1.00;;;;;19.36;55.25;101035.56;5097898;27;45225;-75
2022/06/07 01:36:06;;;;;;;;;1.67;1.67;;;;;19.32;54.87;101007.38;5098171;27;45461;-79
2022/06/07 01:38:33;;;;;;;;;1.00;1.00;;;;;19.37;55.39;101043.50;5096350;27;45448;-77
2022/06/07 01:43:43;;;;;;;;;2.00;2.00;;;;;19.38;55.72;101050.53;5097438;27;45356;-79
2022/06/07 01:46:10;;;;;;;;;1.67;1.00;;;;;19.17;55.79;101021.94;5097975;27;45423;-76
2022/06/07 01:48:35;;;;;;;;;2.00;1.67;;;;;18.94;55.27;100969.53;5097290;27;45625;-77
2022/06/07 01:51:03;;;;;;;;;1.00;1.00;;;;;19.38;55.49;101028.41;5083012;27;46126;-77
2022/06/07 01:53:29;;;;;;;;;1.00;1.00;;;;;19.22;55.58;101007.63;5083597;27;45402;-77
2022/06/07 01:56:12;;;;;;;;;1.00;1.00;;;;;19.43;55.24;101043.31;5097681;27;45507;-78
2022/06/07 01:58:39;;;;;;;;;2.67;1.67;;;;;19.62;55.88;101066.66;5083449;27;45382;-76
2022/06/07 02:01:05;;;;;;;;;1.00;1.00;;;;;19.55;55.84;101051.81;5100254;27;45608;-77
2022/06/07 02:03:31;;;;;;;;;2.00;2.00;;;;;18.80;55.99;100936.31;5099092;27;45536;-76
2022/06/07 02:05:59;;;;;;;;;1.67;1.00;;;;;19.15;55.55;100984.84;5101410;27;45381;-77
2022/06/07 02:08:26;;;;;;;;;3.00;3.00;;;;;19.53;55.60;101035.03;5098820;27;45456;-77
2022/06/07 02:10:52;;;;;;;;;2.00;2.00;;;;;19.26;55.85;100984.50;5098973;27;46369;-75
2022/06/07 02:13:19;;;;;;;;;2.33;1.33;;;;;19.39;55.70;101001.81;5101077;27;45385;-78
2022/06/07 02:15:45;;;;;;;;;2.00;2.00;;;;;19.66;55.92;101045.25;5101170;27;44770;-76
2022/06/07 02:18:11;;;;;;;;;1.67;1.00;;;;;19.02;55.58;100943.63;5102281;27;45201;-76
2022/06/07 02:20:37;;;;;;;;;1.67;1.67;;;;;19.30;56.09;100985.28;5096879;27;45702;-76
2022/06/07 02:23:03;;;;;;;;;2.00;2.00;;;;;19.10;55.75;100962.88;5097509;27;45541;-75
2022/06/07 02:25:34;;;;;;;;;2.00;2.00;;;;;19.12;55.94;100942.44;5098317;27;45432;-76
2022/06/07 02:27:59;;;;;;;;;1.00;0.67;;;;;19.65;55.61;101032.91;5097882;27;45527;-78
2022/06/07 02:30:25;;;;;;;;;1.33;1.33;;;;;19.61;55.82;101031.25;5095940;27;46834;-78
2022/06/07 02:32:51;;;;;;;;;2.00;2.00;;;;;19.66;55.68;101036.41;5113605;27;45424;-75
2022/06/07 02:35:16;;;;;;;;;1.00;1.00;;;;;19.68;55.75;101034.63;5097637;27;45486;-77
2022/06/07 02:37:42;;;;;;;;;3.33;2.00;;;;;19.51;56.01;100994.41;5097716;27;45268;-77
2022/06/07 02:40:08;;;;;;;;;2.00;2.00;;;;;18.87;56.12;100901.63;5097069;27;45301;-77
2022/06/07 05:27:48;;;;;;;;;3.00;3.00;;;;;16.88;72.39;101008.91;5093073;27;45210;-79
2022/06/07 05:30:15;;;;;;;;;5.00;5.00;;;;;16.88;72.46;100967.44;5075227;28;45756;-82
2022/06/07 05:32:41;;;;;;;;;3.00;3.00;;;;;17.29;71.56;101009.81;5074529;28;45547;-81
2022/06/07 05:35:08;;;;;;;;;2.67;2.00;;;;;17.44;70.83;100979.50;5075128;28;45332;-80
2022/06/07 05:37:34;;;;;;;;;3.00;3.00;;;;;17.76;69.88;100990.22;5071582;28;46904;-80
2022/06/07 05:40:04;;;;;;;;;4.00;2.33;;;;;18.07;69.50;101010.72;5074665;27;45477;-77
2022/06/07 05:42:31;;;;;;;;;2.00;2.00;;;;;18.28;68.59;101011.97;5074593;28;45291;-76
2022/06/07 05:44:57;;;;;;;;;2.00;2.00;;;;;18.19;67.71;100972.41;5066315;28;47465;-80
2022/06/07 05:47:23;;;;;;;;;3.00;2.00;;;;;18.59;67.38;101005.84;5071723;28;47321;-81
2022/06/07 05:49:50;;;;;;;;;3.67;2.00;;;;;18.49;66.79;100988.44;5066397;28;45509;-82
2022/06/07 05:52:16;;;;;;;;;3.00;3.00;;;;;18.11;66.35;100893.09;5072414;27;45476;-77
2022/06/07 05:54:42;;;;;;;;;2.67;2.00;;;;;18.64;65.77;100961.50;5060179;28;45495;-79
2022/06/07 05:57:10;;;;;;;;;2.67;2.00;;;;;18.62;65.43;100935.00;5058162;28;45472;-82
2022/06/07 05:59:36;;;;;;;;;2.67;2.67;;;;;19.24;64.83;101012.88;5065587;28;45397;-81
2022/06/07 06:02:02;;;;;;;;;3.00;3.00;;;;;18.72;64.22;100914.41;5076180;28;46129;-80
2022/06/07 06:04:28;;;;;;;;;4.00;3.00;;;;;19.31;64.18;101014.44;5076358;28;45312;-76
2022/06/07 06:06:58;;;;;;;;;2.33;2.00;;;;;18.39;64.16;100852.59;5073200;27;45470;-76
2022/06/07 06:12:10;;;;;;;;;4.67;2.67;;;;;19.40;63.55;101011.50;5073372;28;45654;-76
2022/06/07 06:14:36;;;;;;;;;3.33;3.00;;;;;19.42;63.28;101019.44;5072507;28;45511;-77
2022/06/07 06:17:01;;;;;;;;;3.33;2.00;;;;;19.26;63.17;101001.31;5071468;28;46399;-75
2022/06/07 06:19:27;;;;;;;;;2.67;2.67;;;;;19.33;62.90;101015.28;5073483;27;45345;-75
2022/06/07 06:21:57;;;;;;;;;1.00;1.00;;;;;19.34;63.18;101025.00;5072970;28;45402;-74
2022/06/07 06:24:23;;;;;;;;;7.00;2.67;;;;;18.98;62.69;100964.09;5072804;28;45361;-76
2022/06/07 06:26:54;;;;;;;;;2.00;2.00;;;;;19.34;63.01;101027.66;5085371;27;46554;-74
2022/06/07 06:29:22;;;;;;;;;3.00;3.00;;;;;18.63;63.10;100906.72;5093132;27;45470;-74
2022/06/07 06:31:50;;;;;;;;;2.33;2.33;;;;;19.39;62.66;101035.50;5083129;27;45635;-75
2022/06/07 06:34:16;;;;;;;;;2.00;2.00;;;;;18.99;62.73;100967.63;5093264;27;45551;-77
2022/06/07 06:36:41;;;;;;;;;2.67;2.67;;;;;18.96;62.85;100984.50;5093016;27;45326;-76
2022/06/07 06:39:07;;;;;;;;;2.00;2.00;;;;;18.90;62.93;100958.13;5064529;28;45292;-74
2022/06/07 06:41:34;;;;;;;;;3.67;3.67;;;;;19.39;63.09;101049.63;5080460;28;45381;-75
2022/06/07 06:44:02;;;;;;;;;2.00;2.00;;;;;19.20;63.19;101000.63;5081190;28;45378;-75
2022/06/07 06:46:31;;;;;;;;;3.00;3.00;;;;;19.35;62.86;101028.50;5081898;28;46188;-75
2022/06/07 06:49:00;;;;;;;;;2.00;1.33;;;;;19.38;63.22;101036.38;5079514;28;45556;-75
2022/06/07 06:51:28;;;;;;;;;1.67;1.67;;;;;18.88;62.79;100948.47;5079453;28;45428;-76
2022/06/07 06:53:58;;;;;;;;;3.67;3.00;;;;;19.51;63.16;101048.41;5079013;28;45401;-76
2022/06/07 06:56:24;;;;;;;;;2.00;2.00;;;;;18.58;62.96;100884.72;5078949;28;46234;-74
2022/06/07 06:58:52;;;;;;;;;2.00;2.00;;;;;19.60;62.80;101042.81;5064415;28;45544;-74
2022/06/07 07:01:26;;;;;;;;;3.00;3.00;;;;;19.61;62.58;101051.63;5079628;28;45466;-75
2022/06/07 07:03:55;;;;;;;;;5.00;2.00;;;;;19.61;62.72;101052.50;5066243;28;45467;-74
2022/06/07 07:06:23;;;;;;;;;2.00;2.00;;;;;19.66;62.49;101063.84;5078720;28;45381;-74
2022/06/07 07:08:49;;;;;;;;;3.00;2.67;;;;;19.71;62.25;101053.13;5079305;28;45744;-77
2022/06/07 07:11:25;;;;;;;;;3.33;3.00;;;;;19.74;62.45;101060.13;5080463;28;45396;-75
2022/06/07 07:13:53;;;;;;;;;3.00;3.00;;;;;19.77;61.84;101063.56;5062155;28;45737;-75
2022/06/07 07:16:25;;;;;;;;;1.33;1.00;;;;;19.59;61.54;101027.75;5081313;28;46564;-76
2022/06/07 07:18:51;;;;;;;;;1.00;1.00;;;;;19.60;61.48;101029.53;5060274;28;45508;-75
2022/06/07 07:21:24;;;;;;;;;2.00;2.00;;;;;19.67;61.02;101032.84;5050049;28;47095;-73
2022/06/07 07:23:50;;;;;;;;;2.00;1.67;;;;;19.94;60.53;101062.19;5061731;28;45478;-74
2022/06/07 07:26:22;;;;;;;;;2.00;2.00;;;;;19.82;60.87;101031.53;5082127;28;46094;-74
2022/06/07 07:28:52;;;;;;;;;3.00;2.67;;;;;20.04;60.72;101059.16;5081117;28;45548;-73
2022/06/07 07:31:30;;;;;;;;;2.00;2.00;;;;;20.07;60.54;101058.19;5081212;27;45478;-74
2022/06/07 07:33:57;;;;;;;;;2.00;2.00;;;;;19.69;60.68;100999.16;5080117;28;45438;-75
2022/06/07 07:36:23;;;;;;;;;1.67;1.67;;;;;19.83;60.79;101023.50;5060299;28;47081;-73
2022/06/07 07:38:49;;;;;;;;;1.67;1.67;;;;;20.04;60.49;101055.63;5078755;28;45382;-74
2022/06/07 07:41:20;;;;;;;;;1.00;1.00;;;;;20.01;59.75;101055.75;5079137;28;45485;-74
2022/06/07 07:43:47;;;;;;;;;1.00;1.00;;;;;19.99;60.15;101057.59;5080104;28;45437;-75
2022/06/07 07:46:18;;;;;;;;;1.00;1.00;;;;;19.73;59.92;101007.91;5080608;28;45311;-73
2022/06/07 07:48:43;;;;;;;;;1.00;1.00;;;;;19.48;59.17;100966.13;5061507;28;45529;-75
2022/06/07 07:51:17;;;;;;;;;2.00;0.00;;;;;20.07;58.90;101059.09;5060382;28;45480;-75
2022/06/07 07:53:42;;;;;;;;;0.33;0.33;;;;;20.12;58.92;101062.47;5078015;28;45544;-75
2022/06/07 07:56:09;;;;;;;;;2.00;2.00;;;;;19.82;58.78;100997.00;5078124;28;46089;-75
2022/06/07 07:58:35;;;;;;;;;1.00;1.00;;;;;20.25;58.93;101062.91;5063527;28;45521;-75
2022/06/07 08:01:10;;;;;;;;;1.00;1.00;;;;;20.30;58.64;101062.75;5078022;28;45510;-75
2022/06/07 08:03:39;;;;;;;;;1.00;1.00;;;;;20.20;58.67;101032.94;5077549;28;45574;-74
2022/06/07 08:06:17;;;;;;;;;1.00;1.00;;;;;20.07;58.11;100997.94;5077239;27;46028;-75
2022/06/07 08:08:48;;;;;;;;;1.67;0.00;;;;;20.50;58.00;101067.41;5048602;28;45490;-73
2022/06/07 08:11:16;;;;;;;;;2.00;2.00;;;;;20.60;58.26;101058.25;5054753;28;45599;-76
2022/06/07 08:13:42;;;;;;;;;2.67;2.00;;;;;20.50;57.71;101024.84;5061387;28;45517;-74
2022/06/07 08:16:10;;;;;;;;;4.00;2.00;;;;;20.80;57.17;101064.66;5039233;28;45478;-75
2022/06/07 08:18:38;;;;;;;;;2.00;2.00;;;;;20.89;56.79;101059.88;5045023;28;45367;-73
2022/06/07 08:21:08;;;;;;;;;3.00;3.00;;;;;21.02;56.68;101062.09;5054849;28;45643;-74
2022/06/07 08:23:34;;;;;;;;;2.67;2.67;;;;;20.95;56.75;101032.13;5055341;28;45437;-74
2022/06/07 08:26:03;;;;;;;;;4.00;2.00;;;;;21.21;56.39;101056.94;5056337;28;46702;-75
2022/06/07 08:28:31;;;;;;;;;4.33;3.00;;;;;21.18;56.12;101047.28;5037995;28;46660;-75
2022/06/07 08:30:58;;;;;;;;;2.00;2.00;;;;;20.93;55.88;100975.44;5056501;28;45602;-74
2022/06/07 08:38:59;;;;;;;;;1.00;1.00;;;;;21.63;55.18;101046.47;5057632;28;45296;-75
2022/06/07 08:41:31;;;;;;;;;1.67;1.00;;;;;21.74;54.64;101054.06;5058803;28;45702;-75
2022/06/07 08:44:23;;;;;;;;;2.00;1.67;;;;;21.17;54.23;100947.00;5055019;28;45401;-74
2022/06/07 08:46:52;;;;;;;;;2.00;2.00;;;;;21.51;53.94;101005.19;5055783;28;45523;-74
2022/06/07 08:49:19;;;;;;;;;1.67;1.67;;;;;21.77;53.35;101040.63;5059555;28;45309;-74
2022/06/07 08:51:59;;;;;;;;;2.00;1.00;;;;;21.74;53.74;101044.28;5060256;28;45596;-76
2022/06/07 08:54:31;;;;;;;;;2.67;2.67;;;;;21.67;53.62;101044.59;5056243;28;45392;-74
2022/06/07 08:57:31;;;;;;;;;4.00;3.00;;;;;21.23;53.59;100985.84;5055354;28;46299;-75
2022/06/07 09:00:08;;;;;;;;;2.00;2.00;;;;;21.33;53.56;101013.84;5060672;28;45502;-75
2022/06/07 09:02:46;;;;;;;;;1.33;1.33;;;;;20.70;53.58;100891.97;5067470;28;45385;-76
2022/06/07 09:05:17;;;;;;;;;2.00;2.00;;;;;21.58;53.52;101025.34;5081066;28;45568;-76
2022/06/07 09:07:44;;;;;;;;;2.00;2.00;;;;;21.43;53.14;100995.75;5078551;28;46374;-76
2022/06/07 09:13:20;;;;;;;;;3.00;1.33;;;;;21.66;52.29;101022.38;5056879;28;45380;-75
2022/06/07 09:15:51;;;;;;;;;2.33;2.00;;;;;21.98;51.64;101053.09;5044570;28;45379;-75
2022/06/07 09:18:19;;;;;;;;;3.00;2.00;;;;;22.02;51.85;101052.03;5056356;28;45529;-76
2022/06/07 09:20:49;;;;;;;;;1.67;1.67;;;;;22.01;50.80;101031.63;5064341;28;45559;-76
2022/06/07 09:23:20;;;;;;;;;2.00;2.00;;;;;22.19;50.51;101050.47;5058108;28;45602;-75
2022/06/07 09:25:52;;;;;;;;;1.00;1.00;;;;;21.77;49.47;100973.97;5057055;28;45635;-75
2022/06/07 09:28:29;;;;;;;;;1.00;1.00;;;;;22.08;49.45;101021.56;5056612;28;45477;-76
2022/06/07 09:31:00;;;;;;;;;2.00;2.00;;;;;21.89;49.86;100981.47;5056150;28;45520;-76
2022/06/07 09:33:32;;;;;;;;;1.33;1.33;;;;;21.87;49.67;100972.66;5038314;28;45422;-75
2022/06/07 09:36:06;;;;;;;;;4.00;2.00;;;;;22.08;49.51;101016.22;5055867;28;45363;-74
2022/06/07 09:38:38;;;;;;;;;4.00;4.00;;;;;22.11;49.37;101009.91;5038074;28;46797;-75
2022/06/07 09:41:38;;;;;;;;;2.00;2.00;;;;;22.32;49.59;101042.84;5058324;28;45421;-74
2022/06/07 09:44:15;;;;;;;;;3.33;2.00;;;;;22.34;48.62;101033.84;5039087;28;45346;-76
2022/06/07 09:46:43;;;;;;;;;1.00;1.00;;;;;22.25;48.37;100999.56;5059767;28;45232;-75
2022/06/07 09:49:34;;;;;;;;;2.00;1.00;;;;;22.33;49.29;101015.22;5066831;28;46275;-80
2022/06/07 09:52:14;;;;;;;;;1.00;1.00;;;;;22.25;48.35;101001.34;5067351;27;45362;-79
2022/06/07 09:54:46;;;;;;;;;3.00;2.00;;;;;21.98;46.90;100965.06;5062828;28;45801;-77
2022/06/07 09:57:22;;;;;;;;;3.00;2.00;;;;;22.22;46.81;100997.03;5062998;28;45200;-76
2022/06/07 10:00:19;;;;;;;;;4.67;3.00;;;;;21.97;46.46;100955.34;5072765;28;45456;-77
2022/06/07 10:03:04;;;;;;;;;3.33;3.00;;;;;22.32;47.05;100993.03;5068421;28;46153;-78
2022/06/07 10:05:39;;;;;;;;;2.33;1.33;;;;;22.59;46.83;101027.44;5083478;27;45525;-78
2022/06/07 10:08:36;;;;;;;;;1.00;1.00;;;;;22.65;47.20;101025.38;5086940;27;45348;-77
2022/06/07 10:11:16;;;;;;;;;2.00;1.33;;;;;22.71;46.63;101032.28;5085846;27;45472;-78
2022/06/07 10:13:42;;;;;;;;;1.00;1.00;;;;;22.81;46.49;101022.06;5088330;27;45171;-78
2022/06/07 10:16:24;;;;;;;;;1.00;1.00;;;;;22.11;46.62;100898.72;5086463;27;45206;-77
2022/06/07 10:18:55;;;;;;;;;2.00;1.67;;;;;22.91;45.90;101015.34;5068556;28;45333;-78
2022/06/07 10:21:41;;;;;;;;;2.00;2.00;;;;;22.91;46.44;101014.50;5092522;27;45491;-78
2022/06/07 10:24:19;;;;;;;;;1.00;1.00;;;;;22.98;46.17;101016.84;5088214;27;45334;-77
2022/06/07 10:27:29;;;;;;;;;2.67;2.00;;;;;23.15;45.97;101010.72;5088893;27;45556;-75
2022/06/07 10:30:30;;;;;;;;;1.33;1.33;;;;;22.62;44.18;100945.44;5076768;27;45479;-78
2022/06/07 10:33:23;;;;;;;;;1.00;1.00;;;;;22.96;44.91;101010.66;5051997;28;45537;-76
2022/06/07 10:36:09;;;;;;;;;1.67;1.00;;;;;22.59;45.43;100964.28;5084600;27;45562;-77
2022/06/07 10:39:01;;;;;;;;;1.00;1.00;;;;;22.84;45.73;101019.25;5062194;28;45254;-74
2022/06/07 10:41:46;;;;;;;;;1.00;1.00;;;;;22.91;45.43;101012.69;5068864;28;45348;-77
2022/06/07 10:44:35;;;;;;;;;1.00;1.00;;;;;22.62;45.27;100949.91;5083517;28;45535;-77
2022/06/07 10:47:12;;;;;;;;;3.00;1.00;;;;;22.99;45.71;100991.00;5062987;28;45385;-76
2022/06/07 10:49:58;;;;;;;;;7.00;1.33;;;;;23.11;45.31;101013.63;5081321;28;45357;-76
2022/06/07 10:52:48;;;;;;;;;2.00;1.00;;;;;23.15;43.94;101004.53;5080434;28;45369;-76
2022/06/07 10:55:28;;;;;;;;;3.00;1.33;;;;;23.15;43.93;101009.88;5059799;28;46135;-77
2022/06/07 10:58:24;;;;;;;;;2.00;1.00;;;;;22.91;44.09;100977.97;5063326;28;45340;-76
2022/06/07 11:01:07;;;;;;;;;3.00;2.00;;;;;23.17;44.36;101011.53;5069855;28;45393;-76
2022/06/07 11:03:42;;;;;;;;;2.00;2.00;;;;;23.37;44.22;101009.72;5080729;27;45516;-77
2022/06/07 11:09:41;;;;;;;;;2.00;2.00;;;;;23.40;44.46;101013.13;5081289;27;45342;-78
2022/06/07 11:12:46;;;;;;;;;1.00;1.00;;;;;23.24;44.31;101004.97;5061499;28;45543;-76
2022/06/07 11:15:32;;;;;;;;;2.00;2.00;;;;;22.71;45.26;100967.31;4999233;28;45188;-76
2022/06/07 11:18:14;;;;;;;;;1.00;1.00;;;;;23.02;45.18;101021.13;5006511;28;45868;-78
2022/06/07 11:21:03;;;;;;;;;1.00;1.00;;;;;23.02;45.17;101018.44;5047751;28;45332;-76
2022/06/07 11:23:44;;;;;;;;;0.00;0.00;;;;;23.01;45.14;101021.19;5079857;27;45271;-77
2022/06/07 11:26:18;;;;;;;;;1.00;1.00;;;;;23.08;44.83;101010.13;5079290;27;45406;-77
2022/06/07 11:28:50;;;;;;;;;1.00;1.00;;;;;22.59;44.98;100905.53;5061405;28;46835;-77
2022/06/07 11:31:28;;;;;;;;;1.67;1.67;;;;;23.33;45.23;101005.50;5064556;28;45366;-77
2022/06/07 11:33:53;;;;;;;;;2.00;2.00;;;;;23.49;45.08;101007.34;5072921;28;45405;-71
2022/06/07 11:36:25;;;;;;;;;1.00;1.00;;;;;23.57;45.24;100993.63;5079020;27;45347;-72
2022/06/07 11:38:57;;;;;;;;;0.67;0.67;;;;;23.57;44.02;100998.97;5078979;28;45591;-70
2022/06/07 11:41:38;;;;;;;;;1.00;1.00;;;;;23.75;43.35;100994.53;5078296;27;45589;-69
2022/06/07 11:44:12;;;;;;;;;1.00;1.00;;;;;23.81;42.90;100988.91;5079143;27;45398;-70
2022/06/07 11:46:57;;;;;;;;;0.25;0.25;;;;;23.89;42.73;100991.19;5079106;27;45547;-72
2022/06/07 11:49:29;;;;;;;;;0.00;0.00;;;;;24.02;42.80;100991.47;5078543;27;46282;-71
2022/06/07 11:52:03;;;;;;;;;0.00;0.00;;;;;24.07;42.18;100955.50;5078476;28;45551;-70
2022/06/07 11:54:45;;;;;;;;;2.00;2.00;;;;;24.27;40.96;100969.66;5078370;27;45288;-72
2022/06/07 11:57:35;;;;;;;;;1.00;1.00;;;;;24.45;41.06;100979.44;5073322;27;45223;-72
2022/06/07 12:00:22;;;;;;;;;0.00;0.00;;;;;24.59;41.20;100988.59;5072303;28;46016;-71
2022/06/07 12:02:57;;;;;;;;;2.00;0.00;;;;;24.68;41.06;100980.94;5060471;28;45270;-71
2022/06/07 12:05:52;;;;;;;;;0.50;0.50;;;;;24.70;39.42;100987.09;5078502;28;45547;-70
2022/06/07 12:08:39;;;;;;;;;0.75;0.25;;;;;24.78;40.44;100985.81;5078743;27;45407;-71
2022/06/07 12:11:20;;;;;;;;;1.00;1.00;;;;;24.77;39.98;100947.41;5065018;28;45530;-71
2022/06/07 12:14:00;;;;;;;;;1.00;1.00;;;;;24.46;40.53;100865.16;5059454;28;45544;-73
2022/06/07 12:16:39;;;;;;;;;2.50;0.00;;;;;25.21;40.19;100972.78;5077856;27;45357;-71
2022/06/07 12:19:25;;;;;;;;;0.00;0.00;;;;;25.13;39.76;100924.94;5077821;28;45377;-71
2022/06/07 12:22:05;;;;;;;;;1.00;1.00;;;;;25.50;39.38;100958.59;5059741;28;45559;-71
2022/06/07 12:24:44;;;;;;;;;0.75;0.75;;;;;25.34;39.36;100929.13;5075669;28;45362;-71
2022/06/07 12:27:21;;;;;;;;;0.00;0.00;;;;;25.52;39.88;100958.50;5077517;27;45464;-69
2022/06/07 12:29:47;;;;;;;;;3.25;1.00;;;;;25.68;39.92;100982.66;5059244;28;45619;-70
2022/06/07 12:32:21;;;;;;;;;1.00;1.00;;;;;25.76;39.50;100973.19;5077229;27;45503;-71
2022/06/07 12:35:02;;;;;;;;;1.00;0.25;;;;;25.55;40.10;100927.00;5077020;27;45635;-74
2022/06/07 12:37:28;;;;;;;;;1.00;1.00;;;;;25.68;39.75;100962.06;5077746;27;45433;-70
2022/06/07 12:39:57;;;;;;;;;1.00;0.00;;;;;25.67;40.11;100960.31;5077972;27;45821;-72
2022/06/07 12:42:24;;;;;;;;;1.00;1.00;;;;;25.72;40.55;100968.97;5077898;27;45435;-70
2022/06/07 12:45:00;;;;;;;;;0.25;0.25;;;;;25.48;39.89;100922.94;5077909;27;45550;-69
2022/06/07 12:47:26;;;;;;;;;1.50;1.00;;;;;25.71;39.00;100959.19;5077220;27;45445;-71
2022/06/07 12:49:52;;;;;;;;;1.75;0.00;;;;;25.42;40.13;100923.31;5076324;27;45596;-69
2022/06/07 12:52:21;;;;;;;;;0.00;0.00;;;;;25.59;38.77;100946.47;5077853;27;45425;-69
2022/06/07 12:55:12;;;;;;;;;1.00;1.00;;;;;25.43;39.88;100919.66;5079131;27;45508;-69
2022/06/07 12:57:48;;;;;;;;;2.00;1.00;;;;;25.73;39.57;100965.31;5061999;27;45411;-71
2022/06/07 13:00:17;;;;;;;;;0.75;0.00;;;;;25.73;38.87;100946.53;5075175;27;45245;-71
2022/06/07 13:02:51;;;;;;;;;1.25;1.25;;;;;25.81;38.41;100955.00;5060122;28;48257;-70
2022/06/07 13:05:24;;;;;;;;;0.75;0.75;;;;;25.57;39.47;100929.59;5077251;28;45440;-69
2022/06/07 13:07:52;;;;;;;;;0.00;0.00;;;;;25.22;39.32;100865.47;5075695;27;45342;-68
2022/06/07 13:10:27;;;;;;;;;1.00;1.00;;;;;25.81;38.70;100952.31;5076978;27;45409;-70
2022/06/07 13:12:59;;;;;;;;;2.75;0.25;;;;;25.49;38.56;100864.84;5077552;27;45546;-75
2022/06/07 13:15:27;;;;;;;;;1.50;1.00;;;;;25.85;39.01;100898.50;5077307;28;45475;-75
2022/06/07 13:17:59;;;;;;;;;2.50;2.00;;;;;26.18;37.97;100952.00;5077472;27;45350;-71
2022/06/07 13:20:46;;;;;;;;;2.00;2.00;;;;;26.10;37.54;100928.31;5077649;28;45607;-75
2022/06/07 13:23:26;;;;;;;;;1.00;1.00;;;;;26.25;38.12;100947.16;5058348;28;47100;-72
2022/06/07 13:26:09;;;;;;;;;1.00;1.00;;;;;26.38;37.94;100935.53;5069638;27;45418;-72
2022/06/07 13:28:35;;;;;;;;;1.00;1.00;;;;;26.14;37.78;100869.94;5076927;28;45401;-73
2022/06/07 13:31:02;;;;;;;;;0.00;0.00;;;;;26.27;36.79;100867.34;5063603;28;45467;-76
2022/06/07 13:33:36;;;;;;;;;1.00;1.00;;;;;26.64;37.77;100946.53;5063064;27;45591;-72
2022/06/07 13:36:06;;;;;;;;;0.60;0.60;;;;;26.67;37.35;100926.69;5076832;28;45376;-71
2022/06/07 13:38:49;;;;;;;;;1.00;1.00;;;;;26.73;36.47;100926.31;5076952;27;45421;-77
2022/06/07 13:41:21;;;;;;;;;1.00;1.00;;;;;26.45;36.39;100906.50;5058888;28;45458;-71
2022/06/07 13:43:59;;;;;;;;;1.00;1.00;;;;;26.46;36.82;100927.03;5076767;28;45482;-76
2022/06/07 13:46:30;;;;;;;;;1.50;0.00;;;;;26.15;37.17;100912.78;5076470;28;45414;-74
2022/06/07 13:54:52;;;;;;;;;0.00;0.00;;;;;25.93;37.59;100906.97;5076830;28;45512;-73
2022/06/07 13:57:18;;;;;;;;;1.00;1.00;;;;;26.08;37.97;100918.59;5059365;28;45293;-77
2022/06/07 13:59:43;;;;;;;;;1.50;1.00;;;;;25.89;37.39;100894.69;5050253;28;45382;-75
2022/06/07 14:02:11;;;;;;;;;1.00;1.00;;;;;25.35;37.71;100815.56;5078199;28;45416;-73
2022/06/07 14:04:37;;;;;;;;;2.00;2.00;;;;;25.79;37.62;100927.41;5062486;28;46666;-71
2022/06/07 14:07:03;;;;;;;;;1.00;1.00;;;;;25.55;37.94;100904.69;5080413;28;45272;-72
2022/06/07 14:09:30;;;;;;;;;0.75;0.75;;;;;25.25;38.06;100885.88;5078942;28;45473;-72
2022/06/07 14:11:59;;;;;;;;;0.25;0.25;;;;;25.28;38.50;100912.50;5065469;28;45482;-71
2022/06/07 14:14:26;;;;;;;;;1.00;1.00;;;;;25.04;38.76;100910.22;5067545;28;46148;-70
2022/06/07 14:16:55;;;;;;;;;1.50;1.00;;;;;25.20;38.79;100942.44;5059122;28;45504;-73
2022/06/07 14:19:24;;;;;;;;;2.75;1.00;;;;;25.17;38.95;100932.72;5059335;28;45304;-76
2022/06/07 14:21:51;;;;;;;;;1.25;0.50;;;;;25.31;38.89;100923.91;5059713;28;45457;-77
2022/06/07 14:24:20;;;;;;;;;0.50;0.50;;;;;25.34;39.14;100938.97;5059377;28;45656;-73
2022/06/07 14:26:47;;;;;;;;;0.75;0.75;;;;;25.34;39.07;100938.97;5044931;28;45478;-74
2022/06/07 14:29:13;;;;;;;;;0.50;0.50;;;;;25.16;39.15;100901.50;5059252;28;45367;-74
2022/06/07 14:31:41;;;;;;;;;1.00;1.00;;;;;25.49;38.11;100929.19;5072315;27;45494;-75
2022/06/07 14:34:22;;;;;;;;;0.25;0.25;;;;;25.58;38.48;100934.03;5060024;28;45493;-78
2022/06/07 14:36:52;;;;;;;;;0.00;0.00;;;;;25.47;37.55;100906.97;5059047;28;45437;-77
2022/06/07 14:39:20;;;;;;;;;1.00;1.00;;;;;25.08;37.48;100834.09;5058479;28;45595;-73
2022/06/07 14:41:46;;;;;;;;;0.50;0.00;;;;;25.51;37.14;100901.34;5059516;28;45431;-76
2022/06/07 14:44:13;;;;;;;;;1.00;1.00;;;;;25.79;36.82;100926.53;5058655;28;46565;-76
2022/06/07 14:46:41;;;;;;;;;2.00;2.00;;;;;25.91;37.22;100919.63;5059217;28;45533;-78
2022/06/07 14:49:17;;;;;;;;;1.00;1.00;;;;;25.87;37.59;100888.56;5059073;28;45463;-79
2022/06/07 14:51:44;;;;;;;;;1.25;1.25;;;;;26.04;37.22;100900.97;5059370;28;45445;-74
2022/06/07 14:54:23;;;;;;;;;1.00;1.00;;;;;26.09;36.91;100921.22;5059043;28;46770;-77
2022/06/07 14:56:52;;;;;;;;;0.50;0.00;;;;;25.78;37.67;100893.47;5044658;28;45834;-77
2022/06/07 14:59:22;;;;;;;;;1.00;1.00;;;;;25.81;37.42;100922.81;5067108;28;45710;-76